sensor_id;sensor_type;location;lat;lon;timestamp;temperature;humidity
58339;DHT22;68636;52.704;6.536;2023-04-06T00:01:57;2.20;98.40
58339;DHT22;68636;52.704;6.536;2023-04-06T00:04:23;2.20;98.60
58339;DHT22;68636;52.704;6.536;2023-04-06T00:06:49;2.20;98.20
58339;DHT22;68636;52.704;6.536;2023-04-06T00:09:14;2.10;98.50
58339;DHT22;68636;52.704;6.536;2023-04-06T00:11:40;2.10;98.60
58339;DHT22;68636;52.704;6.536;2023-04-06T00:14:06;2.00;98.50
58339;DHT22;68636;52.704;6.536;2023-04-06T00:16:32;2.00;98.60
58339;DHT22;68636;52.704;6.536;2023-04-06T00:18:57;2.00;98.90
58339;DHT22;68636;52.704;6.536;2023-04-06T00:21:23;2.00;98.80
58339;DHT22;68636;52.704;6.536;2023-04-06T00:23:49;2.00;99.00
58339;DHT22;68636;52.704;6.536;2023-04-06T00:26:15;2.00;98.70
58339;DHT22;68636;52.704;6.536;2023-04-06T00:28:41;2.00;99.00
58339;DHT22;68636;52.704;6.536;2023-04-06T00:31:06;2.00;99.10
58339;DHT22;68636;52.704;6.536;2023-04-06T00:33:32;1.90;99.10
58339;DHT22;68636;52.704;6.536;2023-04-06T00:35:58;2.00;99.10
58339;DHT22;68636;52.704;6.536;2023-04-06T00:38:24;1.90;99.30
58339;DHT22;68636;52.704;6.536;2023-04-06T00:40:49;1.90;99.30
58339;DHT22;68636;52.704;6.536;2023-04-06T00:43:15;1.90;99.30
58339;DHT22;68636;52.704;6.536;2023-04-06T00:45:41;1.90;99.20
58339;DHT22;68636;52.704;6.536;2023-04-06T00:48:08;1.90;99.30
58339;DHT22;68636;52.704;6.536;2023-04-06T00:50:35;1.90;99.40
58339;DHT22;68636;52.704;6.536;2023-04-06T00:53:00;1.90;99.50
58339;DHT22;68636;52.704;6.536;2023-04-06T00:55:27;1.90;99.50
58339;DHT22;68636;52.704;6.536;2023-04-06T00:57:54;1.90;99.50
58339;DHT22;68636;52.704;6.536;2023-04-06T01:00:20;1.90;99.40
58339;DHT22;68636;52.704;6.536;2023-04-06T01:02:46;1.90;99.50
58339;DHT22;68636;52.704;6.536;2023-04-06T01:05:13;1.90;99.80
58339;DHT22;68636;52.704;6.536;2023-04-06T01:07:39;1.80;99.70
58339;DHT22;68636;52.704;6.536;2023-04-06T01:10:06;1.80;99.40
58339;DHT22;68636;52.704;6.536;2023-04-06T01:12:31;1.80;99.50
58339;DHT22;68636;52.704;6.536;2023-04-06T01:14:57;1.80;99.80
58339;DHT22;68636;52.704;6.536;2023-04-06T01:17:23;1.80;99.90
58339;DHT22;68636;52.704;6.536;2023-04-06T01:19:49;1.80;99.80
58339;DHT22;68636;52.704;6.536;2023-04-06T01:22:17;1.80;99.90
58339;DHT22;68636;52.704;6.536;2023-04-06T01:24:43;1.70;99.90
58339;DHT22;68636;52.704;6.536;2023-04-06T01:27:08;1.70;99.90
58339;DHT22;68636;52.704;6.536;2023-04-06T01:29:34;1.70;99.90
58339;DHT22;68636;52.704;6.536;2023-04-06T01:32:00;1.70;99.90
58339;DHT22;68636;52.704;6.536;2023-04-06T01:34:26;1.80;99.80
58339;DHT22;68636;52.704;6.536;2023-04-06T01:36:52;1.70;99.90
58339;DHT22;68636;52.704;6.536;2023-04-06T01:39:18;1.70;99.90
58339;DHT22;68636;52.704;6.536;2023-04-06T01:41:44;1.70;99.90
58339;DHT22;68636;52.704;6.536;2023-04-06T01:44:10;1.60;99.90
58339;DHT22;68636;52.704;6.536;2023-04-06T01:46:36;1.60;99.90
58339;DHT22;68636;52.704;6.536;2023-04-06T01:49:01;1.60;99.90
58339;DHT22;68636;52.704;6.536;2023-04-06T01:51:27;1.60;99.90
58339;DHT22;68636;52.704;6.536;2023-04-06T01:53:53;1.60;99.90
58339;DHT22;68636;52.704;6.536;2023-04-06T01:56:19;1.60;99.90
58339;DHT22;68636;52.704;6.536;2023-04-06T01:58:45;1.50;99.90
58339;DHT22;68636;52.704;6.536;2023-04-06T02:01:11;1.50;99.90
58339;DHT22;68636;52.704;6.536;2023-04-06T02:03:37;1.50;99.90
58339;DHT22;68636;52.704;6.536;2023-04-06T02:06:03;1.50;99.90
58339;DHT22;68636;52.704;6.536;2023-04-06T02:08:29;1.60;99.90
58339;DHT22;68636;52.704;6.536;2023-04-06T02:10:54;1.60;99.90
58339;DHT22;68636;52.704;6.536;2023-04-06T02:13:20;1.60;99.90
58339;DHT22;68636;52.704;6.536;2023-04-06T02:15:46;1.50;99.90
58339;DHT22;68636;52.704;6.536;2023-04-06T02:18:12;1.50;99.90
58339;DHT22;68636;52.704;6.536;2023-04-06T02:20:37;1.40;99.90
58339;DHT22;68636;52.704;6.536;2023-04-06T02:23:03;1.40;99.90
58339;DHT22;68636;52.704;6.536;2023-04-06T02:25:29;1.40;99.90
58339;DHT22;68636;52.704;6.536;2023-04-06T02:27:55;1.30;99.90
58339;DHT22;68636;52.704;6.536;2023-04-06T02:30:20;1.30;99.90
58339;DHT22;68636;52.704;6.536;2023-04-06T02:32:46;1.20;99.90
58339;DHT22;68636;52.704;6.536;2023-04-06T02:35:12;1.20;99.90
58339;DHT22;68636;52.704;6.536;2023-04-06T02:37:38;1.20;99.90
58339;DHT22;68636;52.704;6.536;2023-04-06T02:40:04;1.10;99.90
58339;DHT22;68636;52.704;6.536;2023-04-06T02:42:31;1.10;99.90
58339;DHT22;68636;52.704;6.536;2023-04-06T02:44:57;1.10;99.90
58339;DHT22;68636;52.704;6.536;2023-04-06T02:47:23;1.10;99.90
58339;DHT22;68636;52.704;6.536;2023-04-06T02:49:49;1.00;99.90
58339;DHT22;68636;52.704;6.536;2023-04-06T02:52:21;1.00;99.90
58339;DHT22;68636;52.704;6.536;2023-04-06T02:54:46;0.90;99.90
58339;DHT22;68636;52.704;6.536;2023-04-06T02:57:12;0.90;99.90
58339;DHT22;68636;52.704;6.536;2023-04-06T02:59:38;0.90;99.90
58339;DHT22;68636;52.704;6.536;2023-04-06T03:02:04;0.80;99.90
58339;DHT22;68636;52.704;6.536;2023-04-06T03:04:29;0.80;99.90
58339;DHT22;68636;52.704;6.536;2023-04-06T03:06:55;0.80;99.90
58339;DHT22;68636;52.704;6.536;2023-04-06T03:09:21;0.70;99.90
58339;DHT22;68636;52.704;6.536;2023-04-06T03:11:47;0.70;99.90
58339;DHT22;68636;52.704;6.536;2023-04-06T03:14:13;0.70;99.90
58339;DHT22;68636;52.704;6.536;2023-04-06T03:16:39;0.70;99.90
58339;DHT22;68636;52.704;6.536;2023-04-06T03:19:04;0.70;99.90
58339;DHT22;68636;52.704;6.536;2023-04-06T03:21:30;0.70;99.90
58339;DHT22;68636;52.704;6.536;2023-04-06T03:23:56;0.60;99.90
58339;DHT22;68636;52.704;6.536;2023-04-06T03:26:21;0.70;99.90
58339;DHT22;68636;52.704;6.536;2023-04-06T03:28:47;0.60;99.90
58339;DHT22;68636;52.704;6.536;2023-04-06T03:31:13;0.60;99.90
58339;DHT22;68636;52.704;6.536;2023-04-06T03:33:39;0.60;99.90
58339;DHT22;68636;52.704;6.536;2023-04-06T03:36:05;0.50;99.90
58339;DHT22;68636;52.704;6.536;2023-04-06T03:38:32;0.50;99.90
58339;DHT22;68636;52.704;6.536;2023-04-06T03:40:58;0.40;99.90
58339;DHT22;68636;52.704;6.536;2023-04-06T03:43:23;0.40;99.90
58339;DHT22;68636;52.704;6.536;2023-04-06T03:45:49;0.40;99.90
58339;DHT22;68636;52.704;6.536;2023-04-06T03:48:15;0.40;99.90
58339;DHT22;68636;52.704;6.536;2023-04-06T03:50:41;0.30;99.90
58339;DHT22;68636;52.704;6.536;2023-04-06T03:53:06;0.30;99.90
58339;DHT22;68636;52.704;6.536;2023-04-06T03:55:32;0.30;99.90
58339;DHT22;68636;52.704;6.536;2023-04-06T03:57:58;0.30;99.90
58339;DHT22;68636;52.704;6.536;2023-04-06T04:00:24;0.40;99.90
58339;DHT22;68636;52.704;6.536;2023-04-06T04:02:50;0.30;99.90
58339;DHT22;68636;52.704;6.536;2023-04-06T04:05:16;0.40;99.90
58339;DHT22;68636;52.704;6.536;2023-04-06T04:07:42;0.40;99.90
58339;DHT22;68636;52.704;6.536;2023-04-06T04:10:08;0.40;99.90
58339;DHT22;68636;52.704;6.536;2023-04-06T04:12:34;0.30;99.90
58339;DHT22;68636;52.704;6.536;2023-04-06T04:14:59;0.30;99.90
58339;DHT22;68636;52.704;6.536;2023-04-06T04:17:25;0.30;99.90
58339;DHT22;68636;52.704;6.536;2023-04-06T04:19:51;0.40;99.90
58339;DHT22;68636;52.704;6.536;2023-04-06T04:22:17;0.40;99.90
58339;DHT22;68636;52.704;6.536;2023-04-06T04:24:42;0.40;99.90
58339;DHT22;68636;52.704;6.536;2023-04-06T04:27:08;0.40;99.90
58339;DHT22;68636;52.704;6.536;2023-04-06T04:29:34;0.30;99.90
58339;DHT22;68636;52.704;6.536;2023-04-06T04:32:00;0.30;99.90
58339;DHT22;68636;52.704;6.536;2023-04-06T04:34:26;0.30;99.90
58339;DHT22;68636;52.704;6.536;2023-04-06T04:36:52;0.40;99.90
58339;DHT22;68636;52.704;6.536;2023-04-06T04:39:18;0.30;99.90
58339;DHT22;68636;52.704;6.536;2023-04-06T04:41:44;0.30;99.90
58339;DHT22;68636;52.704;6.536;2023-04-06T04:44:09;0.30;99.90
58339;DHT22;68636;52.704;6.536;2023-04-06T04:46:35;0.30;99.90
58339;DHT22;68636;52.704;6.536;2023-04-06T04:49:01;0.40;99.90
58339;DHT22;68636;52.704;6.536;2023-04-06T04:51:27;0.30;99.90
58339;DHT22;68636;52.704;6.536;2023-04-06T04:53:52;0.40;99.90
58339;DHT22;68636;52.704;6.536;2023-04-06T04:56:18;0.30;99.90
58339;DHT22;68636;52.704;6.536;2023-04-06T04:58:44;0.40;99.90
58339;DHT22;68636;52.704;6.536;2023-04-06T05:01:09;0.30;99.90
58339;DHT22;68636;52.704;6.536;2023-04-06T05:03:36;0.30;99.90
58339;DHT22;68636;52.704;6.536;2023-04-06T05:06:04;0.40;99.90
58339;DHT22;68636;52.704;6.536;2023-04-06T05:08:30;0.40;99.90
58339;DHT22;68636;52.704;6.536;2023-04-06T05:10:56;0.40;99.90
58339;DHT22;68636;52.704;6.536;2023-04-06T05:13:22;0.40;99.90
58339;DHT22;68636;52.704;6.536;2023-04-06T05:15:48;0.50;99.90
58339;DHT22;68636;52.704;6.536;2023-04-06T05:18:14;0.60;99.90
58339;DHT22;68636;52.704;6.536;2023-04-06T05:20:40;0.60;99.90
58339;DHT22;68636;52.704;6.536;2023-04-06T05:23:06;0.60;99.90
58339;DHT22;68636;52.704;6.536;2023-04-06T05:25:32;0.60;99.90
58339;DHT22;68636;52.704;6.536;2023-04-06T05:27:58;0.60;99.90
58339;DHT22;68636;52.704;6.536;2023-04-06T05:30:24;0.60;99.90
58339;DHT22;68636;52.704;6.536;2023-04-06T05:32:50;0.60;99.90
58339;DHT22;68636;52.704;6.536;2023-04-06T05:35:16;0.70;99.90
58339;DHT22;68636;52.704;6.536;2023-04-06T05:37:42;0.70;99.90
58339;DHT22;68636;52.704;6.536;2023-04-06T05:40:08;0.80;99.90
58339;DHT22;68636;52.704;6.536;2023-04-06T05:42:41;0.90;99.90
58339;DHT22;68636;52.704;6.536;2023-04-06T05:45:08;0.90;99.90
58339;DHT22;68636;52.704;6.536;2023-04-06T05:47:36;1.00;99.90
58339;DHT22;68636;52.704;6.536;2023-04-06T05:50:02;1.10;99.90
58339;DHT22;68636;52.704;6.536;2023-04-06T05:52:28;1.20;99.90
58339;DHT22;68636;52.704;6.536;2023-04-06T05:54:54;1.30;99.90
58339;DHT22;68636;52.704;6.536;2023-04-06T05:57:20;1.50;99.90
58339;DHT22;68636;52.704;6.536;2023-04-06T05:59:46;1.60;99.90
58339;DHT22;68636;52.704;6.536;2023-04-06T06:02:11;1.60;99.90
58339;DHT22;68636;52.704;6.536;2023-04-06T06:04:37;1.70;99.90
58339;DHT22;68636;52.704;6.536;2023-04-06T06:07:03;1.80;99.90
58339;DHT22;68636;52.704;6.536;2023-04-06T06:09:29;1.90;99.90
58339;DHT22;68636;52.704;6.536;2023-04-06T06:11:55;2.00;99.90
58339;DHT22;68636;52.704;6.536;2023-04-06T06:14:21;2.10;99.90
58339;DHT22;68636;52.704;6.536;2023-04-06T06:16:47;2.20;99.90
58339;DHT22;68636;52.704;6.536;2023-04-06T06:19:13;2.20;99.90
58339;DHT22;68636;52.704;6.536;2023-04-06T06:21:39;2.40;99.90
58339;DHT22;68636;52.704;6.536;2023-04-06T06:24:05;2.40;99.90
58339;DHT22;68636;52.704;6.536;2023-04-06T06:26:31;2.50;99.90
58339;DHT22;68636;52.704;6.536;2023-04-06T06:28:57;2.60;99.90
58339;DHT22;68636;52.704;6.536;2023-04-06T06:31:23;2.60;99.90
58339;DHT22;68636;52.704;6.536;2023-04-06T06:33:50;2.70;99.90
58339;DHT22;68636;52.704;6.536;2023-04-06T06:36:17;2.70;99.90
58339;DHT22;68636;52.704;6.536;2023-04-06T06:38:43;2.80;99.90
58339;DHT22;68636;52.704;6.536;2023-04-06T06:41:10;2.90;99.90
58339;DHT22;68636;52.704;6.536;2023-04-06T06:43:36;3.00;99.90
58339;DHT22;68636;52.704;6.536;2023-04-06T06:46:02;3.00;99.90
58339;DHT22;68636;52.704;6.536;2023-04-06T06:48:28;3.10;99.90
58339;DHT22;68636;52.704;6.536;2023-04-06T06:50:54;3.30;99.90
58339;DHT22;68636;52.704;6.536;2023-04-06T06:53:20;3.40;99.90
58339;DHT22;68636;52.704;6.536;2023-04-06T06:55:46;3.50;99.90
58339;DHT22;68636;52.704;6.536;2023-04-06T06:58:14;3.50;99.90
58339;DHT22;68636;52.704;6.536;2023-04-06T07:00:40;3.60;99.90
58339;DHT22;68636;52.704;6.536;2023-04-06T07:03:06;3.70;99.90
58339;DHT22;68636;52.704;6.536;2023-04-06T07:05:32;3.80;99.90
58339;DHT22;68636;52.704;6.536;2023-04-06T07:07:58;4.10;99.90
58339;DHT22;68636;52.704;6.536;2023-04-06T07:10:24;4.20;99.90
58339;DHT22;68636;52.704;6.536;2023-04-06T07:12:49;4.30;99.90
58339;DHT22;68636;52.704;6.536;2023-04-06T07:15:16;4.30;99.90
58339;DHT22;68636;52.704;6.536;2023-04-06T07:17:42;4.40;99.90
58339;DHT22;68636;52.704;6.536;2023-04-06T07:20:10;4.50;99.90
58339;DHT22;68636;52.704;6.536;2023-04-06T07:22:37;4.50;99.90
58339;DHT22;68636;52.704;6.536;2023-04-06T07:25:03;4.60;99.90
58339;DHT22;68636;52.704;6.536;2023-04-06T07:27:29;4.60;99.90
58339;DHT22;68636;52.704;6.536;2023-04-06T07:29:55;4.70;99.90
58339;DHT22;68636;52.704;6.536;2023-04-06T07:32:21;4.80;99.90
58339;DHT22;68636;52.704;6.536;2023-04-06T07:34:46;5.00;99.90
58339;DHT22;68636;52.704;6.536;2023-04-06T07:37:12;5.10;99.90
58339;DHT22;68636;52.704;6.536;2023-04-06T07:39:38;5.30;99.90
58339;DHT22;68636;52.704;6.536;2023-04-06T07:42:04;5.40;99.90
58339;DHT22;68636;52.704;6.536;2023-04-06T07:44:29;5.50;99.90
58339;DHT22;68636;52.704;6.536;2023-04-06T07:46:55;5.70;99.90
58339;DHT22;68636;52.704;6.536;2023-04-06T07:49:21;5.70;99.90
58339;DHT22;68636;52.704;6.536;2023-04-06T07:51:48;5.80;99.90
58339;DHT22;68636;52.704;6.536;2023-04-06T07:54:14;6.00;99.90
58339;DHT22;68636;52.704;6.536;2023-04-06T07:56:40;6.10;99.90
58339;DHT22;68636;52.704;6.536;2023-04-06T07:59:06;6.20;99.90
58339;DHT22;68636;52.704;6.536;2023-04-06T08:01:32;6.40;99.90
58339;DHT22;68636;52.704;6.536;2023-04-06T08:03:58;6.50;99.90
58339;DHT22;68636;52.704;6.536;2023-04-06T08:06:24;6.60;99.90
58339;DHT22;68636;52.704;6.536;2023-04-06T08:08:50;6.60;99.90
58339;DHT22;68636;52.704;6.536;2023-04-06T08:11:16;6.80;99.90
58339;DHT22;68636;52.704;6.536;2023-04-06T08:13:42;6.90;99.90
58339;DHT22;68636;52.704;6.536;2023-04-06T08:16:08;7.10;99.90
58339;DHT22;68636;52.704;6.536;2023-04-06T08:18:33;7.30;99.90
58339;DHT22;68636;52.704;6.536;2023-04-06T08:20:59;7.40;99.90
58339;DHT22;68636;52.704;6.536;2023-04-06T08:23:25;7.40;99.90
58339;DHT22;68636;52.704;6.536;2023-04-06T08:25:51;7.50;99.90
58339;DHT22;68636;52.704;6.536;2023-04-06T08:28:20;7.70;99.90
58339;DHT22;68636;52.704;6.536;2023-04-06T08:30:46;7.80;99.90
58339;DHT22;68636;52.704;6.536;2023-04-06T08:33:12;8.00;99.90
58339;DHT22;68636;52.704;6.536;2023-04-06T08:35:38;8.20;99.90
58339;DHT22;68636;52.704;6.536;2023-04-06T08:38:04;8.40;99.90
58339;DHT22;68636;52.704;6.536;2023-04-06T08:40:30;8.70;99.90
58339;DHT22;68636;52.704;6.536;2023-04-06T08:43:03;8.80;99.90
58339;DHT22;68636;52.704;6.536;2023-04-06T08:45:34;9.00;99.90
58339;DHT22;68636;52.704;6.536;2023-04-06T08:48:00;9.10;99.50
58339;DHT22;68636;52.704;6.536;2023-04-06T08:50:29;9.20;99.00
58339;DHT22;68636;52.704;6.536;2023-04-06T08:52:55;9.30;99.20
58339;DHT22;68636;52.704;6.536;2023-04-06T08:55:22;9.40;99.20
58339;DHT22;68636;52.704;6.536;2023-04-06T08:57:48;9.50;98.50
58339;DHT22;68636;52.704;6.536;2023-04-06T09:00:15;9.50;98.20
58339;DHT22;68636;52.704;6.536;2023-04-06T09:02:43;9.70;98.60
58339;DHT22;68636;52.704;6.536;2023-04-06T09:05:09;9.80;98.50
58339;DHT22;68636;52.704;6.536;2023-04-06T09:07:36;9.80;98.00
58339;DHT22;68636;52.704;6.536;2023-04-06T09:10:04;9.90;97.50
58339;DHT22;68636;52.704;6.536;2023-04-06T09:12:31;9.90;96.80
58339;DHT22;68636;52.704;6.536;2023-04-06T09:14:59;10.00;96.20
58339;DHT22;68636;52.704;6.536;2023-04-06T09:17:29;10.00;95.80
58339;DHT22;68636;52.704;6.536;2023-04-06T09:19:56;10.00;96.00
58339;DHT22;68636;52.704;6.536;2023-04-06T09:22:22;10.00;96.00
58339;DHT22;68636;52.704;6.536;2023-04-06T09:24:52;10.10;95.80
58339;DHT22;68636;52.704;6.536;2023-04-06T09:27:33;10.20;96.20
58339;DHT22;68636;52.704;6.536;2023-04-06T09:30:10;10.30;94.90
58339;DHT22;68636;52.704;6.536;2023-04-06T09:32:46;10.30;95.30
58339;DHT22;68636;52.704;6.536;2023-04-06T09:35:12;10.30;95.00
58339;DHT22;68636;52.704;6.536;2023-04-06T09:37:38;10.50;94.60
58339;DHT22;68636;52.704;6.536;2023-04-06T09:40:05;10.60;93.80
58339;DHT22;68636;52.704;6.536;2023-04-06T09:42:31;10.60;93.70
58339;DHT22;68636;52.704;6.536;2023-04-06T09:44:57;10.60;93.50
58339;DHT22;68636;52.704;6.536;2023-04-06T09:47:24;10.60;93.20
58339;DHT22;68636;52.704;6.536;2023-04-06T09:49:56;10.60;93.70
58339;DHT22;68636;52.704;6.536;2023-04-06T09:52:37;10.70;93.50
58339;DHT22;68636;52.704;6.536;2023-04-06T09:55:04;10.70;94.00
58339;DHT22;68636;52.704;6.536;2023-04-06T10:00:04;10.80;94.30
58339;DHT22;68636;52.704;6.536;2023-04-06T10:02:58;10.80;94.10
58339;DHT22;68636;52.704;6.536;2023-04-06T10:05:34;11.00;93.30
58339;DHT22;68636;52.704;6.536;2023-04-06T10:08:06;11.00;93.40
58339;DHT22;68636;52.704;6.536;2023-04-06T10:10:32;11.10;93.40
58339;DHT22;68636;52.704;6.536;2023-04-06T10:12:58;11.10;93.70
58339;DHT22;68636;52.704;6.536;2023-04-06T10:15:27;11.20;93.60
58339;DHT22;68636;52.704;6.536;2023-04-06T10:17:54;11.30;93.60
58339;DHT22;68636;52.704;6.536;2023-04-06T10:25:57;11.50;92.70
58339;DHT22;68636;52.704;6.536;2023-04-06T10:28:24;11.60;93.30
58339;DHT22;68636;52.704;6.536;2023-04-06T10:30:56;11.80;92.70
58339;DHT22;68636;52.704;6.536;2023-04-06T10:33:22;11.90;91.80
58339;DHT22;68636;52.704;6.536;2023-04-06T10:35:48;11.80;91.20
58339;DHT22;68636;52.704;6.536;2023-04-06T10:38:13;11.80;90.80
58339;DHT22;68636;52.704;6.536;2023-04-06T10:40:41;12.00;91.50
58339;DHT22;68636;52.704;6.536;2023-04-06T10:43:21;12.10;90.80
58339;DHT22;68636;52.704;6.536;2023-04-06T10:45:59;12.20;91.10
58339;DHT22;68636;52.704;6.536;2023-04-06T10:48:25;12.20;91.60
58339;DHT22;68636;52.704;6.536;2023-04-06T10:51:01;12.40;90.90
58339;DHT22;68636;52.704;6.536;2023-04-06T10:53:28;12.50;88.60
58339;DHT22;68636;52.704;6.536;2023-04-06T10:55:57;12.30;87.20
58339;DHT22;68636;52.704;6.536;2023-04-06T10:58:27;12.40;88.40
58339;DHT22;68636;52.704;6.536;2023-04-06T11:00:54;12.50;88.90
58339;DHT22;68636;52.704;6.536;2023-04-06T11:03:20;12.70;87.90
58339;DHT22;68636;52.704;6.536;2023-04-06T11:05:46;12.70;87.50
58339;DHT22;68636;52.704;6.536;2023-04-06T11:08:25;12.80;87.00
58339;DHT22;68636;52.704;6.536;2023-04-06T11:10:51;12.60;84.50
58339;DHT22;68636;52.704;6.536;2023-04-06T11:13:17;12.60;85.30
58339;DHT22;68636;52.704;6.536;2023-04-06T11:15:43;12.70;86.00
58339;DHT22;68636;52.704;6.536;2023-04-06T11:18:09;12.70;85.80
58339;DHT22;68636;52.704;6.536;2023-04-06T11:20:36;12.80;84.80
58339;DHT22;68636;52.704;6.536;2023-04-06T11:23:02;13.00;83.00
58339;DHT22;68636;52.704;6.536;2023-04-06T11:25:29;13.00;83.40
58339;DHT22;68636;52.704;6.536;2023-04-06T11:27:57;13.00;83.40
58339;DHT22;68636;52.704;6.536;2023-04-06T11:30:23;13.10;84.00
58339;DHT22;68636;52.704;6.536;2023-04-06T11:32:48;13.20;83.30
58339;DHT22;68636;52.704;6.536;2023-04-06T11:35:22;13.30;84.00
58339;DHT22;68636;52.704;6.536;2023-04-06T11:37:49;13.40;83.70
58339;DHT22;68636;52.704;6.536;2023-04-06T11:40:20;13.60;83.50
58339;DHT22;68636;52.704;6.536;2023-04-06T11:42:55;13.70;84.30
58339;DHT22;68636;52.704;6.536;2023-04-06T11:45:22;13.90;80.60
58339;DHT22;68636;52.704;6.536;2023-04-06T11:47:59;13.90;82.50
58339;DHT22;68636;52.704;6.536;2023-04-06T11:50:32;13.70;80.80
58339;DHT22;68636;52.704;6.536;2023-04-06T11:53:01;14.10;80.00
58339;DHT22;68636;52.704;6.536;2023-04-06T11:55:27;14.20;80.00
58339;DHT22;68636;52.704;6.536;2023-04-06T11:57:53;14.10;80.80
58339;DHT22;68636;52.704;6.536;2023-04-06T12:00:20;14.20;79.30
58339;DHT22;68636;52.704;6.536;2023-04-06T12:02:47;14.10;79.90
58339;DHT22;68636;52.704;6.536;2023-04-06T12:05:13;14.10;81.00
58339;DHT22;68636;52.704;6.536;2023-04-06T12:07:39;13.70;81.30
58339;DHT22;68636;52.704;6.536;2023-04-06T12:10:05;13.80;82.20
58339;DHT22;68636;52.704;6.536;2023-04-06T12:12:31;13.70;81.50
58339;DHT22;68636;52.704;6.536;2023-04-06T12:14:57;13.80;82.40
58339;DHT22;68636;52.704;6.536;2023-04-06T12:17:24;13.70;80.40
58339;DHT22;68636;52.704;6.536;2023-04-06T12:19:50;13.80;81.50
58339;DHT22;68636;52.704;6.536;2023-04-06T12:22:17;13.80;80.40
58339;DHT22;68636;52.704;6.536;2023-04-06T12:24:43;13.60;81.60
58339;DHT22;68636;52.704;6.536;2023-04-06T12:27:08;13.80;83.50
58339;DHT22;68636;52.704;6.536;2023-04-06T12:29:37;14.10;83.60
58339;DHT22;68636;52.704;6.536;2023-04-06T12:32:03;14.00;81.80
58339;DHT22;68636;52.704;6.536;2023-04-06T12:34:29;14.10;80.60
58339;DHT22;68636;52.704;6.536;2023-04-06T12:36:55;13.90;81.50
58339;DHT22;68636;52.704;6.536;2023-04-06T12:39:21;14.10;83.10
58339;DHT22;68636;52.704;6.536;2023-04-06T12:41:47;13.90;82.00
58339;DHT22;68636;52.704;6.536;2023-04-06T12:44:13;13.90;82.30
58339;DHT22;68636;52.704;6.536;2023-04-06T12:46:39;14.00;83.20
58339;DHT22;68636;52.704;6.536;2023-04-06T12:49:05;13.80;83.30
58339;DHT22;68636;52.704;6.536;2023-04-06T12:51:30;13.90;83.00
58339;DHT22;68636;52.704;6.536;2023-04-06T12:53:57;14.00;84.00
58339;DHT22;68636;52.704;6.536;2023-04-06T12:56:23;13.70;82.70
58339;DHT22;68636;52.704;6.536;2023-04-06T12:58:51;13.70;84.50
58339;DHT22;68636;52.704;6.536;2023-04-06T13:01:17;13.70;84.30
58339;DHT22;68636;52.704;6.536;2023-04-06T13:03:43;13.70;83.50
58339;DHT22;68636;52.704;6.536;2023-04-06T13:06:09;13.70;84.30
58339;DHT22;68636;52.704;6.536;2023-04-06T13:08:35;13.60;84.60
58339;DHT22;68636;52.704;6.536;2023-04-06T13:11:02;13.70;84.80
58339;DHT22;68636;52.704;6.536;2023-04-06T13:13:29;13.70;85.90
58339;DHT22;68636;52.704;6.536;2023-04-06T13:15:59;13.30;84.00
58339;DHT22;68636;52.704;6.536;2023-04-06T13:18:26;13.40;85.80
58339;DHT22;68636;52.704;6.536;2023-04-06T13:20:52;13.30;86.20
58339;DHT22;68636;52.704;6.536;2023-04-06T13:23:18;13.30;87.80
58339;DHT22;68636;52.704;6.536;2023-04-06T13:25:44;13.30;87.70
58339;DHT22;68636;52.704;6.536;2023-04-06T13:28:10;13.40;88.40
58339;DHT22;68636;52.704;6.536;2023-04-06T13:30:36;13.60;88.30
58339;DHT22;68636;52.704;6.536;2023-04-06T13:33:02;13.30;88.90
58339;DHT22;68636;52.704;6.536;2023-04-06T13:35:28;13.30;89.20
58339;DHT22;68636;52.704;6.536;2023-04-06T13:37:53;13.20;89.90
58339;DHT22;68636;52.704;6.536;2023-04-06T13:40:20;13.00;88.80
58339;DHT22;68636;52.704;6.536;2023-04-06T13:42:47;12.90;89.50
58339;DHT22;68636;52.704;6.536;2023-04-06T13:45:12;12.90;89.70
58339;DHT22;68636;52.704;6.536;2023-04-06T13:47:38;12.90;90.20
58339;DHT22;68636;52.704;6.536;2023-04-06T13:50:04;12.90;89.60
58339;DHT22;68636;52.704;6.536;2023-04-06T13:52:30;12.70;89.00
58339;DHT22;68636;52.704;6.536;2023-04-06T13:54:56;12.70;89.40
58339;DHT22;68636;52.704;6.536;2023-04-06T13:57:22;12.50;89.70
58339;DHT22;68636;52.704;6.536;2023-04-06T13:59:47;12.50;90.00
58339;DHT22;68636;52.704;6.536;2023-04-06T14:02:15;12.20;90.00
58339;DHT22;68636;52.704;6.536;2023-04-06T14:04:40;12.40;89.10
58339;DHT22;68636;52.704;6.536;2023-04-06T14:07:06;12.30;89.10
58339;DHT22;68636;52.704;6.536;2023-04-06T14:09:33;12.40;90.00
58339;DHT22;68636;52.704;6.536;2023-04-06T14:11:59;12.40;89.60
58339;DHT22;68636;52.704;6.536;2023-04-06T14:14:25;12.20;89.70
58339;DHT22;68636;52.704;6.536;2023-04-06T14:16:51;12.20;89.80
58339;DHT22;68636;52.704;6.536;2023-04-06T14:19:18;12.00;89.90
58339;DHT22;68636;52.704;6.536;2023-04-06T14:21:50;12.30;89.50
58339;DHT22;68636;52.704;6.536;2023-04-06T14:24:17;12.40;89.30
58339;DHT22;68636;52.704;6.536;2023-04-06T14:26:43;12.40;90.10
58339;DHT22;68636;52.704;6.536;2023-04-06T14:29:09;12.30;90.60
58339;DHT22;68636;52.704;6.536;2023-04-06T14:31:36;12.00;91.10
58339;DHT22;68636;52.704;6.536;2023-04-06T14:34:03;11.80;91.80
58339;DHT22;68636;52.704;6.536;2023-04-06T14:36:31;11.60;92.30
58339;DHT22;68636;52.704;6.536;2023-04-06T14:39:05;11.60;92.30
58339;DHT22;68636;52.704;6.536;2023-04-06T14:41:32;11.50;92.90
58339;DHT22;68636;52.704;6.536;2023-04-06T14:43:58;11.40;93.70
58339;DHT22;68636;52.704;6.536;2023-04-06T14:46:24;11.30;93.90
58339;DHT22;68636;52.704;6.536;2023-04-06T14:48:51;11.00;95.60
58339;DHT22;68636;52.704;6.536;2023-04-06T14:51:16;10.90;97.40
58339;DHT22;68636;52.704;6.536;2023-04-06T14:53:42;10.80;96.60
58339;DHT22;68636;52.704;6.536;2023-04-06T14:56:08;10.80;96.80
58339;DHT22;68636;52.704;6.536;2023-04-06T14:58:34;10.70;97.60
58339;DHT22;68636;52.704;6.536;2023-04-06T15:01:01;10.60;97.70
58339;DHT22;68636;52.704;6.536;2023-04-06T15:03:28;10.70;97.90
58339;DHT22;68636;52.704;6.536;2023-04-06T15:05:55;10.50;99.40
58339;DHT22;68636;52.704;6.536;2023-04-06T15:08:22;10.40;99.90
58339;DHT22;68636;52.704;6.536;2023-04-06T15:10:51;10.50;99.50
58339;DHT22;68636;52.704;6.536;2023-04-06T15:13:18;10.50;99.90
58339;DHT22;68636;52.704;6.536;2023-04-06T15:15:44;10.40;99.90
58339;DHT22;68636;52.704;6.536;2023-04-06T15:18:10;10.30;99.90
58339;DHT22;68636;52.704;6.536;2023-04-06T15:20:36;10.30;99.90
58339;DHT22;68636;52.704;6.536;2023-04-06T15:23:03;10.20;99.90
58339;DHT22;68636;52.704;6.536;2023-04-06T15:25:30;10.10;99.90
58339;DHT22;68636;52.704;6.536;2023-04-06T15:27:56;10.00;99.90
58339;DHT22;68636;52.704;6.536;2023-04-06T15:30:22;9.90;99.90
58339;DHT22;68636;52.704;6.536;2023-04-06T15:32:59;9.90;99.90
58339;DHT22;68636;52.704;6.536;2023-04-06T15:35:29;9.80;99.90
58339;DHT22;68636;52.704;6.536;2023-04-06T15:37:55;9.70;99.90
58339;DHT22;68636;52.704;6.536;2023-04-06T15:40:22;9.60;99.90
58339;DHT22;68636;52.704;6.536;2023-04-06T15:42:48;9.60;99.90
58339;DHT22;68636;52.704;6.536;2023-04-06T15:45:13;9.50;99.90